sensor_id;sensor_type;location;lat;lon;timestamp;pressure;altitude;pressure_sealevel;temperature;humidity
54806;BME280;62866;55.776;37.496;2022-12-07T00:02:24;101013.44;;;-6.46;52.29
54806;BME280;62866;55.776;37.496;2022-12-07T00:04:50;101010.06;;;-6.49;52.07
54806;BME280;62866;55.776;37.496;2022-12-07T00:07:16;101009.34;;;-6.53;52.42
54806;BME280;62866;55.776;37.496;2022-12-07T00:09:41;101016.31;;;-6.54;51.94
54806;BME280;62866;55.776;37.496;2022-12-07T00:12:07;101006.03;;;-6.58;52.17
54806;BME280;62866;55.776;37.496;2022-12-07T00:14:33;101010.25;;;-6.54;52.42
54806;BME280;62866;55.776;37.496;2022-12-07T00:16:59;101008.59;;;-6.57;51.83
54806;BME280;62866;55.776;37.496;2022-12-07T00:19:24;101006.06;;;-6.60;51.70
54806;BME280;62866;55.776;37.496;2022-12-07T00:21:50;101009.53;;;-6.59;52.03
54806;BME280;62866;55.776;37.496;2022-12-07T00:24:15;101011.41;;;-6.63;52.04
54806;BME280;62866;55.776;37.496;2022-12-07T00:26:42;101012.13;;;-6.59;51.67
54806;BME280;62866;55.776;37.496;2022-12-07T00:29:15;101007.19;;;-6.67;51.43
54806;BME280;62866;55.776;37.496;2022-12-07T00:31:41;101002.16;;;-6.71;51.32
54806;BME280;62866;55.776;37.496;2022-12-07T00:34:07;101003.84;;;-6.70;51.91
54806;BME280;62866;55.776;37.496;2022-12-07T00:36:36;101004.69;;;-6.70;51.15
54806;BME280;62866;55.776;37.496;2022-12-07T00:39:02;100999.53;;;-6.71;51.44
54806;BME280;62866;55.776;37.496;2022-12-07T00:41:28;101010.72;;;-6.69;51.51
54806;BME280;62866;55.776;37.496;2022-12-07T00:43:54;101013.50;;;-6.74;51.28
54806;BME280;62866;55.776;37.496;2022-12-07T00:46:21;101004.84;;;-6.74;51.04
54806;BME280;62866;55.776;37.496;2022-12-07T00:48:48;101003.03;;;-6.72;51.04
54806;BME280;62866;55.776;37.496;2022-12-07T00:51:16;101007.31;;;-6.70;50.74
54806;BME280;62866;55.776;37.496;2022-12-07T00:53:42;101010.88;;;-6.74;50.99
54806;BME280;62866;55.776;37.496;2022-12-07T00:56:12;101010.97;;;-6.77;51.40
54806;BME280;62866;55.776;37.496;2022-12-07T00:58:38;101009.22;;;-6.76;51.07
54806;BME280;62866;55.776;37.496;2022-12-07T01:01:05;101005.13;;;-6.83;51.55
54806;BME280;62866;55.776;37.496;2022-12-07T01:03:31;100994.88;;;-6.88;51.37
54806;BME280;62866;55.776;37.496;2022-12-07T01:05:57;101011.34;;;-6.87;51.52
54806;BME280;62866;55.776;37.496;2022-12-07T01:08:24;101003.59;;;-6.89;51.82
54806;BME280;62866;55.776;37.496;2022-12-07T01:10:58;101001.94;;;-6.92;51.74
54806;BME280;62866;55.776;37.496;2022-12-07T01:13:24;101000.22;;;-6.93;51.82
54806;BME280;62866;55.776;37.496;2022-12-07T01:15:50;101007.94;;;-6.90;52.11
54806;BME280;62866;55.776;37.496;2022-12-07T01:18:15;100982.19;;;-6.97;52.07
54806;BME280;62866;55.776;37.496;2022-12-07T01:20:41;100981.63;;;-7.07;52.03
54806;BME280;62866;55.776;37.496;2022-12-07T01:23:07;100994.38;;;-6.99;51.89
54806;BME280;62866;55.776;37.496;2022-12-07T01:25:33;100990.06;;;-7.00;51.72
54806;BME280;62866;55.776;37.496;2022-12-07T01:27:58;101001.41;;;-7.03;52.06
54806;BME280;62866;55.776;37.496;2022-12-07T01:30:24;100981.81;;;-7.13;52.08
54806;BME280;62866;55.776;37.496;2022-12-07T01:32:50;100996.31;;;-7.06;51.93
54806;BME280;62866;55.776;37.496;2022-12-07T01:35:15;100988.56;;;-7.07;52.07
54806;BME280;62866;55.776;37.496;2022-12-07T01:37:41;100983.41;;;-7.09;52.11
54806;BME280;62866;55.776;37.496;2022-12-07T01:40:07;100988.00;;;-7.17;52.21
54806;BME280;62866;55.776;37.496;2022-12-07T01:42:33;100980.16;;;-7.15;52.53
54806;BME280;62866;55.776;37.496;2022-12-07T01:47:46;100973.97;;;-7.11;52.16
54806;BME280;62866;55.776;37.496;2022-12-07T01:50:12;100965.47;;;-7.16;52.43
54806;BME280;62866;55.776;37.496;2022-12-07T01:52:39;100969.06;;;-7.20;52.61
54806;BME280;62866;55.776;37.496;2022-12-07T01:55:08;100967.22;;;-7.17;52.73
54806;BME280;62866;55.776;37.496;2022-12-07T01:57:38;100957.09;;;-7.26;52.79
54806;BME280;62866;55.776;37.496;2022-12-07T02:00:07;100962.28;;;-7.26;53.16
54806;BME280;62866;55.776;37.496;2022-12-07T02:02:35;100969.97;;;-7.21;53.21
54806;BME280;62866;55.776;37.496;2022-12-07T02:05:04;100966.47;;;-7.20;52.85
54806;BME280;62866;55.776;37.496;2022-12-07T02:07:31;100945.97;;;-7.30;52.89
54806;BME280;62866;55.776;37.496;2022-12-07T02:10:11;100962.22;;;-7.23;52.57
54806;BME280;62866;55.776;37.496;2022-12-07T02:12:36;100966.56;;;-7.23;52.86
54806;BME280;62866;55.776;37.496;2022-12-07T02:15:02;100964.84;;;-7.24;52.71
54806;BME280;62866;55.776;37.496;2022-12-07T02:24:05;100963.97;;;-7.23;52.86
54806;BME280;62866;55.776;37.496;2022-12-07T02:29:24;100963.25;;;-7.29;52.68
54806;BME280;62866;55.776;37.496;2022-12-07T02:32:16;100971.09;;;-7.30;52.52
54806;BME280;62866;55.776;37.496;2022-12-07T02:35:07;100958.16;;;-7.32;52.38
54806;BME280;62866;55.776;37.496;2022-12-07T02:40:25;100946.91;;;-7.32;52.66
54806;BME280;62866;55.776;37.496;2022-12-07T02:43:30;100962.34;;;-7.28;52.45
54806;BME280;62866;55.776;37.496;2022-12-07T02:45:50;100949.59;;;-7.35;52.56
54806;BME280;62866;55.776;37.496;2022-12-07T02:48:18;100958.16;;;-7.32;52.84
54806;BME280;62866;55.776;37.496;2022-12-07T02:50:52;100962.34;;;-7.28;52.45
54806;BME280;62866;55.776;37.496;2022-12-07T02:53:39;100960.75;;;-7.32;52.42
54806;BME280;62866;55.776;37.496;2022-12-07T03:16:16;100944.22;;;-7.29;52.54
54806;BME280;62866;55.776;37.496;2022-12-07T03:18:48;100951.28;;;-7.34;53.07
54806;BME280;62866;55.776;37.496;2022-12-07T03:21:19;100954.53;;;-7.28;52.84
54806;BME280;62866;55.776;37.496;2022-12-07T03:23:51;100941.56;;;-7.28;52.68
54806;BME280;62866;55.776;37.496;2022-12-07T03:26:19;100945.84;;;-7.27;52.89
54806;BME280;62866;55.776;37.496;2022-12-07T03:28:52;100945.09;;;-7.29;52.82
54806;BME280;62866;55.776;37.496;2022-12-07T03:31:23;100947.59;;;-7.27;52.63
54806;BME280;62866;55.776;37.496;2022-12-07T03:34:10;100945.84;;;-7.27;52.89
54806;BME280;62866;55.776;37.496;2022-12-07T03:37:00;100944.09;;;-7.26;52.59
54806;BME280;62866;55.776;37.496;2022-12-07T03:40:07;100947.69;;;-7.29;52.48
54806;BME280;62866;55.776;37.496;2022-12-07T03:42:37;100937.41;;;-7.33;52.70
54806;BME280;62866;55.776;37.496;2022-12-07T03:45:03;100944.47;;;-7.37;52.40
54806;BME280;62866;55.776;37.496;2022-12-07T03:47:33;100940.81;;;-7.31;52.35
54806;BME280;62866;55.776;37.496;2022-12-07T03:51:03;100945.44;;;-7.41;52.72
54806;BME280;62866;55.776;37.496;2022-12-07T03:53:39;100942.28;;;-7.50;52.66
54806;BME280;62866;55.776;37.496;2022-12-07T03:56:06;100943.13;;;-7.50;53.19
54806;BME280;62866;55.776;37.496;2022-12-07T03:58:34;100938.09;;;-7.54;53.29
54806;BME280;62866;55.776;37.496;2022-12-07T04:01:00;100938.31;;;-7.62;53.41
54806;BME280;62866;55.776;37.496;2022-12-07T04:03:25;100938.44;;;-7.67;53.48
54806;BME280;62866;55.776;37.496;2022-12-07T04:05:51;100934.13;;;-7.68;53.99
54806;BME280;62866;55.776;37.496;2022-12-07T04:08:16;100934.25;;;-7.71;54.15
54806;BME280;62866;55.776;37.496;2022-12-07T04:10:42;100923.09;;;-7.74;54.18
54806;BME280;62866;55.776;37.496;2022-12-07T04:13:07;100929.22;;;-7.77;54.31
54806;BME280;62866;55.776;37.496;2022-12-07T04:15:33;100938.81;;;-7.79;54.71
54806;BME280;62866;55.776;37.496;2022-12-07T04:17:59;100939.47;;;-7.72;54.54
54806;BME280;62866;55.776;37.496;2022-12-07T04:20:24;100936.38;;;-7.85;54.60
54806;BME280;62866;55.776;37.496;2022-12-07T04:22:50;100942.44;;;-7.84;54.82
54806;BME280;62866;55.776;37.496;2022-12-07T04:25:15;100931.16;;;-7.83;54.99
54806;BME280;62866;55.776;37.496;2022-12-07T04:27:41;100928.81;;;-7.92;55.30
54806;BME280;62866;55.776;37.496;2022-12-07T04:30:07;100935.94;;;-7.99;55.91
54806;BME280;62866;55.776;37.496;2022-12-07T04:32:33;100945.47;;;-7.99;56.01
54806;BME280;62866;55.776;37.496;2022-12-07T04:34:58;100930.81;;;-8.02;56.36
54806;BME280;62866;55.776;37.496;2022-12-07T04:37:24;100921.75;;;-8.17;56.83
54806;BME280;62866;55.776;37.496;2022-12-07T04:39:49;100935.50;;;-8.13;57.30
54806;BME280;62866;55.776;37.496;2022-12-07T04:42:15;100927.78;;;-8.16;57.50
54806;BME280;62866;55.776;37.496;2022-12-07T04:44:40;100912.47;;;-8.25;57.71
54806;BME280;62866;55.776;37.496;2022-12-07T04:47:06;100924.59;;;-8.26;57.90
54806;BME280;62866;55.776;37.496;2022-12-07T04:49:32;100928.19;;;-8.30;58.49
54806;BME280;62866;55.776;37.496;2022-12-07T04:51:57;100919.00;;;-8.41;58.47
54806;BME280;62866;55.776;37.496;2022-12-07T04:54:23;100928.28;;;-8.33;59.05
54806;BME280;62866;55.776;37.496;2022-12-07T04:56:48;100911.38;;;-8.46;58.95
54806;BME280;62866;55.776;37.496;2022-12-07T04:59:15;100930.19;;;-8.39;59.72
54806;BME280;62866;55.776;37.496;2022-12-07T05:01:42;100933.72;;;-8.42;59.75
54806;BME280;62866;55.776;37.496;2022-12-07T05:04:08;100930.94;;;-8.36;60.02
54806;BME280;62866;55.776;37.496;2022-12-07T05:06:34;100930.16;;;-8.38;59.90
54806;BME280;62866;55.776;37.496;2022-12-07T05:09:00;100932.91;;;-8.44;59.94
54806;BME280;62866;55.776;37.496;2022-12-07T05:11:26;100927.91;;;-8.52;60.13
54806;BME280;62866;55.776;37.496;2022-12-07T05:14:17;100924.63;;;-8.57;60.89
54806;BME280;62866;55.776;37.496;2022-12-07T05:16:45;100942.56;;;-8.49;60.90
54806;BME280;62866;55.776;37.496;2022-12-07T05:19:12;100945.31;;;-8.55;60.68
54806;BME280;62866;55.776;37.496;2022-12-07T05:21:38;100935.59;;;-8.47;61.20
54806;BME280;62866;55.776;37.496;2022-12-07T05:24:04;100935.56;;;-8.46;61.33
54806;BME280;62866;55.776;37.496;2022-12-07T05:26:31;100936.53;;;-8.50;61.68
54806;BME280;62866;55.776;37.496;2022-12-07T05:28:57;100933.09;;;-8.52;61.59
54806;BME280;62866;55.776;37.496;2022-12-07T05:31:23;100934.00;;;-8.53;61.99
54806;BME280;62866;55.776;37.496;2022-12-07T05:33:49;100937.63;;;-8.58;62.39
54806;BME280;62866;55.776;37.496;2022-12-07T05:36:15;100931.66;;;-8.62;62.89
54806;BME280;62866;55.776;37.496;2022-12-07T05:38:41;100930.69;;;-8.58;62.76
54806;BME280;62866;55.776;37.496;2022-12-07T05:41:07;100934.13;;;-8.57;63.14
54806;BME280;62866;55.776;37.496;2022-12-07T05:43:53;100928.97;;;-8.59;62.87
54806;BME280;62866;55.776;37.496;2022-12-07T05:46:18;100921.44;;;-8.68;63.50
54806;BME280;62866;55.776;37.496;2022-12-07T05:48:44;100935.22;;;-8.66;63.04
54806;BME280;62866;55.776;37.496;2022-12-07T05:51:09;100924.13;;;-8.71;63.87
54806;BME280;62866;55.776;37.496;2022-12-07T05:53:35;100923.16;;;-8.67;63.98
54806;BME280;62866;55.776;37.496;2022-12-07T05:56:00;100920.56;;;-8.67;64.41
54806;BME280;62866;55.776;37.496;2022-12-07T05:58:26;100927.28;;;-8.60;64.54
54806;BME280;62866;55.776;37.496;2022-12-07T06:01:10;100918.44;;;-8.53;64.62
54806;BME280;62866;55.776;37.496;2022-12-07T06:03:35;100908.41;;;-8.65;64.67
54806;BME280;62866;55.776;37.496;2022-12-07T06:06:01;100919.16;;;-8.46;64.51
54806;BME280;62866;55.776;37.496;2022-12-07T06:08:26;100924.38;;;-8.48;64.77
54806;BME280;62866;55.776;37.496;2022-12-07T06:10:52;100918.34;;;-8.48;65.28
54806;BME280;62866;55.776;37.496;2022-12-07T06:13:37;100923.69;;;-8.54;64.77
54806;BME280;62866;55.776;37.496;2022-12-07T06:16:03;100916.69;;;-8.52;64.90
54806;BME280;62866;55.776;37.496;2022-12-07T06:18:28;100914.31;;;-8.60;65.60
54806;BME280;62866;55.776;37.496;2022-12-07T06:20:54;100921.78;;;-8.48;65.84
54806;BME280;62866;55.776;37.496;2022-12-07T06:23:19;100910.59;;;-8.50;65.92
54806;BME280;62866;55.776;37.496;2022-12-07T06:25:45;100904.56;;;-8.50;65.77
54806;BME280;62866;55.776;37.496;2022-12-07T06:28:11;100923.34;;;-8.42;65.95
54806;BME280;62866;55.776;37.496;2022-12-07T06:30:36;100918.22;;;-8.45;66.12
54806;BME280;62866;55.776;37.496;2022-12-07T06:33:02;100915.75;;;-8.48;66.41
54806;BME280;62866;55.776;37.496;2022-12-07T06:35:27;100913.25;;;-8.53;66.63
54806;BME280;62866;55.776;37.496;2022-12-07T06:37:53;100920.81;;;-8.45;66.69
54806;BME280;62866;55.776;37.496;2022-12-07T06:40:18;100920.00;;;-8.46;67.13
54806;BME280;62866;55.776;37.496;2022-12-07T06:42:44;100919.19;;;-8.48;67.27
54806;BME280;62866;55.776;37.496;2022-12-07T06:45:10;100914.06;;;-8.51;67.69
54806;BME280;62866;55.776;37.496;2022-12-07T06:47:35;100925.38;;;-8.53;67.84
54806;BME280;62866;55.776;37.496;2022-12-07T06:50:01;100925.28;;;-8.50;68.33
54806;BME280;62866;55.776;37.496;2022-12-07T06:52:27;100915.81;;;-8.51;68.53
54806;BME280;62866;55.776;37.496;2022-12-07T06:54:52;100920.09;;;-8.50;68.08
54806;BME280;62866;55.776;37.496;2022-12-07T06:57:18;100913.16;;;-8.48;68.65
54806;BME280;62866;55.776;37.496;2022-12-07T06:59:45;100918.91;;;-8.37;68.16
54806;BME280;62866;55.776;37.496;2022-12-07T07:02:11;100923.38;;;-8.44;68.26
54806;BME280;62866;55.776;37.496;2022-12-07T07:04:36;100921.63;;;-8.43;68.08
54806;BME280;62866;55.776;37.496;2022-12-07T07:07:02;100915.72;;;-8.47;68.32
54806;BME280;62866;55.776;37.496;2022-12-07T07:09:27;100928.28;;;-8.33;68.39
54806;BME280;62866;55.776;37.496;2022-12-07T07:11:53;100921.44;;;-8.35;68.25
54806;BME280;62866;55.776;37.496;2022-12-07T07:14:18;100926.56;;;-8.34;68.54
54806;BME280;62866;55.776;37.496;2022-12-07T07:16:44;100918.81;;;-8.34;68.13
54806;BME280;62866;55.776;37.496;2022-12-07T07:19:10;100924.13;;;-8.38;68.31
54806;BME280;62866;55.776;37.496;2022-12-07T07:21:36;100913.81;;;-8.41;67.93
54806;BME280;62866;55.776;37.496;2022-12-07T07:24:02;100910.13;;;-8.33;67.84
54806;BME280;62866;55.776;37.496;2022-12-07T07:26:27;100910.81;;;-8.28;67.75
54806;BME280;62866;55.776;37.496;2022-12-07T07:28:53;100909.69;;;-8.19;67.34
54806;BME280;62866;55.776;37.496;2022-12-07T07:31:18;100914.16;;;-8.23;67.11
54806;BME280;62866;55.776;37.496;2022-12-07T07:33:45;100915.03;;;-8.24;67.46
54806;BME280;62866;55.776;37.496;2022-12-07T07:36:11;100912.19;;;-8.15;66.76
54806;BME280;62866;55.776;37.496;2022-12-07T07:38:37;100902.63;;;-8.13;66.69
54806;BME280;62866;55.776;37.496;2022-12-07T07:41:02;100893.34;;;-8.21;66.47
54806;BME280;62866;55.776;37.496;2022-12-07T07:43:28;100893.47;;;-8.26;66.63
54806;BME280;62866;55.776;37.496;2022-12-07T07:45:53;100893.22;;;-8.17;66.31
54806;BME280;62866;55.776;37.496;2022-12-07T07:48:19;100886.19;;;-8.13;66.49
54806;BME280;62866;55.776;37.496;2022-12-07T07:50:45;100890.38;;;-8.09;66.20
54806;BME280;62866;55.776;37.496;2022-12-07T07:53:10;100887.94;;;-8.14;66.56
54806;BME280;62866;55.776;37.496;2022-12-07T07:55:36;100893.13;;;-8.14;66.77
54806;BME280;62866;55.776;37.496;2022-12-07T07:58:01;100898.09;;;-8.06;66.58
54806;BME280;62866;55.776;37.496;2022-12-07T08:00:27;100893.03;;;-8.11;66.82
54806;BME280;62866;55.776;37.496;2022-12-07T08:02:52;100885.94;;;-8.04;65.94
54806;BME280;62866;55.776;37.496;2022-12-07T08:05:18;100878.41;;;-8.13;66.30
54806;BME280;62866;55.776;37.496;2022-12-07T08:07:44;100885.78;;;-7.99;66.07
54806;BME280;62866;55.776;37.496;2022-12-07T08:10:11;100877.28;;;-8.05;66.06
54806;BME280;62866;55.776;37.496;2022-12-07T08:12:38;100881.47;;;-8.00;65.59
54806;BME280;62866;55.776;37.496;2022-12-07T08:15:25;100874.94;;;-8.12;65.76
54806;BME280;62866;55.776;37.496;2022-12-07T08:17:50;100878.56;;;-8.19;66.39
54806;BME280;62866;55.776;37.496;2022-12-07T08:20:16;100882.00;;;-8.19;66.28
54806;BME280;62866;55.776;37.496;2022-12-07T08:22:41;100887.94;;;-8.14;66.16
54806;BME280;62866;55.776;37.496;2022-12-07T08:25:07;100881.97;;;-8.17;66.29
54806;BME280;62866;55.776;37.496;2022-12-07T08:27:33;100889.91;;;-8.22;66.43
54806;BME280;62866;55.776;37.496;2022-12-07T08:29:58;100876.16;;;-8.25;66.30
54806;BME280;62866;55.776;37.496;2022-12-07T08:32:24;100883.75;;;-8.19;66.90
54806;BME280;62866;55.776;37.496;2022-12-07T08:34:49;100871.03;;;-8.28;66.78
54806;BME280;62866;55.776;37.496;2022-12-07T08:37:15;100887.38;;;-8.25;66.38
54806;BME280;62866;55.776;37.496;2022-12-07T08:39:40;100877.09;;;-8.28;66.89
54806;BME280;62866;55.776;37.496;2022-12-07T08:42:06;100871.13;;;-8.30;66.74
54806;BME280;62866;55.776;37.496;2022-12-07T08:44:31;100867.19;;;-7.58;66.05
54806;BME280;62866;55.776;37.496;2022-12-07T08:46:59;100869.97;;;-5.68;62.60
54806;BME280;62866;55.776;37.496;2022-12-07T08:49:31;100859.53;;;-4.24;58.87
54806;BME280;62866;55.776;37.496;2022-12-07T08:51:58;100861.81;;;-3.42;54.77
54806;BME280;62866;55.776;37.496;2022-12-07T08:54:24;100855.16;;;-3.14;52.44
54806;BME280;62866;55.776;37.496;2022-12-07T08:56:50;100851.84;;;-3.00;50.97
54806;BME280;62866;55.776;37.496;2022-12-07T08:59:18;100850.34;;;-2.87;50.59
54806;BME280;62866;55.776;37.496;2022-12-07T09:01:44;100854.47;;;-3.00;51.13
54806;BME280;62866;55.776;37.496;2022-12-07T09:04:10;100845.63;;;-3.15;50.74
54806;BME280;62866;55.776;37.496;2022-12-07T09:06:36;100851.47;;;-4.00;52.65
54806;BME280;62866;55.776;37.496;2022-12-07T09:09:03;100839.44;;;-5.01;53.09
54806;BME280;62866;55.776;37.496;2022-12-07T09:11:29;100844.31;;;-5.78;55.58
54806;BME280;62866;55.776;37.496;2022-12-07T09:13:55;100857.09;;;-6.17;56.68
54806;BME280;62866;55.776;37.496;2022-12-07T09:16:21;100852.13;;;-6.46;57.28
54806;BME280;62866;55.776;37.496;2022-12-07T09:18:47;100846.13;;;-6.71;57.83
54806;BME280;62866;55.776;37.496;2022-12-07T09:21:12;100841.44;;;-6.86;58.70
54806;BME280;62866;55.776;37.496;2022-12-07T09:23:38;100845.81;;;-6.87;58.82
54806;BME280;62866;55.776;37.496;2022-12-07T09:26:04;100835.22;;;-6.82;58.89
54806;BME280;62866;55.776;37.496;2022-12-07T09:28:31;100832.63;;;-6.82;58.94
54806;BME280;62866;55.776;37.496;2022-12-07T09:30:56;100826.63;;;-6.84;58.82
54806;BME280;62866;55.776;37.496;2022-12-07T09:33:22;100829.09;;;-6.80;59.09
54806;BME280;62866;55.776;37.496;2022-12-07T09:35:49;100827.53;;;-6.85;59.37
54806;BME280;62866;55.776;37.496;2022-12-07T09:38:16;100825.00;;;-6.87;59.08
54806;BME280;62866;55.776;37.496;2022-12-07T09:40:42;100818.09;;;-6.88;58.62
54806;BME280;62866;55.776;37.496;2022-12-07T09:43:19;100821.91;;;-6.98;58.79
54806;BME280;62866;55.776;37.496;2022-12-07T09:45:47;100812.59;;;-7.04;58.94
54806;BME280;62866;55.776;37.496;2022-12-07T09:48:30;100823.72;;;-7.00;59.20
54806;BME280;62866;55.776;37.496;2022-12-07T09:50:58;100817.63;;;-6.99;59.55
54806;BME280;62866;55.776;37.496;2022-12-07T09:53:33;100811.53;;;-6.98;58.86
54806;BME280;62866;55.776;37.496;2022-12-07T09:55:59;100809.59;;;-6.93;58.60
54806;BME280;62866;55.776;37.496;2022-12-07T09:58:27;100793.22;;;-6.95;58.71
54806;BME280;62866;55.776;37.496;2022-12-07T10:00:57;100807.84;;;-6.93;58.68
54806;BME280;62866;55.776;37.496;2022-12-07T10:03:26;100799.59;;;-7.04;58.78
54806;BME280;62866;55.776;37.496;2022-12-07T10:05:52;100794.19;;;-6.98;59.15
54806;BME280;62866;55.776;37.496;2022-12-07T10:08:19;100787.59;;;-7.08;58.83
54806;BME280;62866;55.776;37.496;2022-12-07T10:10:50;100780.25;;;-7.20;59.06
54806;BME280;62866;55.776;37.496;2022-12-07T10:13:21;100788.66;;;-7.13;59.38
54806;BME280;62866;55.776;37.496;2022-12-07T10:18:35;100792.69;;;-7.05;58.87
54806;BME280;62866;55.776;37.496;2022-12-07T10:21:14;100783.16;;;-7.04;59.24
54806;BME280;62866;55.776;37.496;2022-12-07T10:26:48;100780.84;;;-6.88;58.56
54806;BME280;62866;55.776;37.496;2022-12-07T10:29:31;100797.63;;;-6.97;58.92
54806;BME280;62866;55.776;37.496;2022-12-07T10:32:44;100782.56;;;-6.87;58.65
54806;BME280;62866;55.776;37.496;2022-12-07T10:37:54;100783.78;;;-6.98;58.78
54806;BME280;62866;55.776;37.496;2022-12-07T10:40:34;100782.47;;;-6.86;58.20
54806;BME280;62866;55.776;37.496;2022-12-07T10:43:22;100768.91;;;-6.94;58.29
54806;BME280;62866;55.776;37.496;2022-12-07T10:48:17;100777.13;;;-6.81;58.07
54806;BME280;62866;55.776;37.496;2022-12-07T10:53:54;100746.31;;;-6.92;58.19
54806;BME280;62866;55.776;37.496;2022-12-07T10:56:27;100752.50;;;-6.95;58.26
54806;BME280;62866;55.776;37.496;2022-12-07T10:59:05;100758.47;;;-6.93;58.31
54806;BME280;62866;55.776;37.496;2022-12-07T11:01:45;100757.88;;;-7.01;58.45
54806;BME280;62866;55.776;37.496;2022-12-07T11:04:30;100751.28;;;-6.86;58.13
54806;BME280;62866;55.776;37.496;2022-12-07T11:07:18;100749.31;;;-6.79;58.11
54806;BME280;62866;55.776;37.496;2022-12-07T11:10:13;100743.94;;;-6.98;58.38
54806;BME280;62866;55.776;37.496;2022-12-07T11:12:53;100738.75;;;-6.98;59.04
54806;BME280;62866;55.776;37.496;2022-12-07T11:21:35;100732.50;;;-6.94;58.98
54806;BME280;62866;55.776;37.496;2022-12-07T11:24:16;100747.88;;;-7.11;59.22
54806;BME280;62866;55.776;37.496;2022-12-07T11:38:03;100741.94;;;-7.15;59.97
54806;BME280;62866;55.776;37.496;2022-12-07T11:40:35;100736.06;;;-7.20;60.32
54806;BME280;62866;55.776;37.496;2022-12-07T11:45:39;100727.09;;;-7.11;59.84
54806;BME280;62866;55.776;37.496;2022-12-07T11:48:22;100723.47;;;-7.07;59.88
54806;BME280;62866;55.776;37.496;2022-12-07T11:50:53;100717.53;;;-7.11;60.08
54806;BME280;62866;55.776;37.496;2022-12-07T11:53:27;100715.31;;;-7.21;60.19
54806;BME280;62866;55.776;37.496;2022-12-07T12:01:24;100710.56;;;-7.34;61.21
54806;BME280;62866;55.776;37.496;2022-12-07T12:06:33;100707.16;;;-7.36;61.10
54806;BME280;62866;55.776;37.496;2022-12-07T12:09:15;100691.31;;;-7.28;61.19
54806;BME280;62866;55.776;37.496;2022-12-07T12:14:37;100699.31;;;-7.59;61.50
54806;BME280;62866;55.776;37.496;2022-12-07T12:19:57;100704.75;;;-7.67;62.37
54806;BME280;62866;55.776;37.496;2022-12-07T12:22:39;100703.91;;;-7.67;62.43
54806;BME280;62866;55.776;37.496;2022-12-07T12:25:36;100698.97;;;-7.75;62.23
54806;BME280;62866;55.776;37.496;2022-12-07T12:27:58;100692.00;;;-7.73;62.78
54806;BME280;62866;55.776;37.496;2022-12-07T12:33:02;100685.81;;;-7.95;62.85
54806;BME280;62866;55.776;37.496;2022-12-07T12:35:37;100697.28;;;-8.02;63.58
54806;BME280;62866;55.776;37.496;2022-12-07T12:38:26;100689.50;;;-8.02;63.77
54806;BME280;62866;55.776;37.496;2022-12-07T12:40:54;100690.72;;;-8.12;64.08
54806;BME280;62866;55.776;37.496;2022-12-07T12:43:58;100685.53;;;-8.12;64.07
54806;BME280;62866;55.776;37.496;2022-12-07T12:51:43;100682.00;;;-8.11;64.70
54806;BME280;62866;55.776;37.496;2022-12-07T12:54:32;100689.34;;;-8.24;64.91
54806;BME280;62866;55.776;37.496;2022-12-07T12:57:17;100690.34;;;-8.28;64.99
54806;BME280;62866;55.776;37.496;2022-12-07T13:02:25;100697.09;;;-8.22;65.16
54806;BME280;62866;55.776;37.496;2022-12-07T13:04:53;100697.00;;;-8.46;65.44
54806;BME280;62866;55.776;37.496;2022-12-07T13:15:42;100685.66;;;-8.43;66.62
54806;BME280;62866;55.776;37.496;2022-12-07T13:20:48;100688.25;;;-8.43;66.94
54806;BME280;62866;55.776;37.496;2022-12-07T13:23:18;100669.28;;;-8.45;67.40
54806;BME280;62866;55.776;37.496;2022-12-07T13:25:49;100673.88;;;-8.53;67.35
54806;BME280;62866;55.776;37.496;2022-12-07T13:28:18;100678.34;;;-8.58;67.52
54806;BME280;62866;55.776;37.496;2022-12-07T13:30:53;100677.56;;;-8.60;67.85
54806;BME280;62866;55.776;37.496;2022-12-07T13:33:23;100684.56;;;-8.62;67.72
54806;BME280;62866;55.776;37.496;2022-12-07T13:35:53;100668.94;;;-8.61;67.99
54806;BME280;62866;55.776;37.496;2022-12-07T13:43:26;100666.09;;;-8.53;67.86
54806;BME280;62866;55.776;37.496;2022-12-07T13:46:00;100666.22;;;-8.56;67.73
54806;BME280;62866;55.776;37.496;2022-12-07T13:48:36;100658.72;;;-8.65;67.55
54806;BME280;62866;55.776;37.496;2022-12-07T13:51:17;100680.09;;;-8.59;67.95
54806;BME280;62866;55.776;37.496;2022-12-07T13:53:54;100680.94;;;-8.58;67.54
54806;BME280;62866;55.776;37.496;2022-12-07T13:56:22;100656.06;;;-8.64;68.01
54806;BME280;62866;55.776;37.496;2022-12-07T13:58:51;100672.53;;;-8.65;67.88
54806;BME280;62866;55.776;37.496;2022-12-07T14:01:16;100669.06;;;-8.65;67.58
54806;BME280;62866;55.776;37.496;2022-12-07T14:03:43;100655.22;;;-8.64;67.82
54806;BME280;62866;55.776;37.496;2022-12-07T14:08:37;100651.97;;;-8.71;67.63
54806;BME280;62866;55.776;37.496;2022-12-07T14:11:03;100675.38;;;-8.74;67.63
54806;BME280;62866;55.776;37.496;2022-12-07T14:13:44;100670.50;;;-8.85;67.83
54806;BME280;62866;55.776;37.496;2022-12-07T14:16:31;100665.81;;;-8.72;68.21
54806;BME280;62866;55.776;37.496;2022-12-07T14:18:59;100660.69;;;-8.73;68.26
54806;BME280;62866;55.776;37.496;2022-12-07T14:21:28;100631.44;;;-8.78;67.94
54806;BME280;62866;55.776;37.496;2022-12-07T14:26:34;100658.00;;;-8.70;67.96
54806;BME280;62866;55.776;37.496;2022-12-07T14:29:39;100648.09;;;-8.86;68.11
54806;BME280;62866;55.776;37.496;2022-12-07T14:32:19;100645.56;;;-8.87;68.52
54806;BME280;62866;55.776;37.496;2022-12-07T14:34:59;100642.97;;;-8.87;68.37
54806;BME280;62866;55.776;37.496;2022-12-07T14:37:25;100668.69;;;-8.81;68.10
54806;BME280;62866;55.776;37.496;2022-12-07T14:39:51;100655.06;;;-8.88;68.46
54806;BME280;62866;55.776;37.496;2022-12-07T14:42:17;100651.13;;;-9.01;68.73
54806;BME280;62866;55.776;37.496;2022-12-07T14:44:43;100655.75;;;-8.81;68.37
54806;BME280;62866;55.776;37.496;2022-12-07T14:47:10;100650.00;;;-8.92;68.83
54806;BME280;62866;55.776;37.496;2022-12-07T14:49:36;100649.94;;;-8.89;68.47